createdAt,value
2018-03-16T00:00:41.518Z,4.76
2018-03-16T00:03:09.041Z,4.72
2018-03-16T00:05:36.691Z,4.65
2018-03-16T00:08:04.269Z,4.57
2018-03-16T00:10:31.839Z,4.63
2018-03-16T00:12:59.425Z,4.74
2018-03-16T00:15:26.968Z,4.82
2018-03-16T00:17:54.505Z,4.87
2018-03-16T00:20:22.054Z,4.99
2018-03-16T00:22:49.610Z,5.10
2018-03-16T00:25:17.157Z,5.19
2018-03-16T00:27:44.717Z,5.33
2018-03-16T00:30:12.280Z,5.44
2018-03-16T00:32:40.709Z,5.49
2018-03-16T00:35:08.327Z,5.38
2018-03-16T00:37:36.804Z,5.22
2018-03-16T00:40:04.459Z,5.04
2018-03-16T00:42:32.031Z,4.91
2018-03-16T00:44:59.558Z,4.92
2018-03-16T00:47:27.110Z,4.90
2018-03-16T00:49:54.641Z,4.84
2018-03-16T00:52:22.238Z,4.73
2018-03-16T00:54:49.768Z,4.64
2018-03-16T00:57:17.314Z,4.58
2018-03-16T00:59:44.845Z,4.45
2018-03-16T01:02:12.402Z,4.34
2018-03-16T01:04:39.942Z,4.35
2018-03-16T01:07:07.517Z,4.21
2018-03-16T01:09:35.049Z,4.27
2018-03-16T01:12:02.614Z,4.22
2018-03-16T01:14:30.157Z,4.11
2018-03-16T01:16:57.730Z,4.06
2018-03-16T01:19:25.336Z,4.05
2018-03-16T01:21:52.991Z,4.09
2018-03-16T01:24:20.531Z,4.06
2018-03-16T01:26:48.109Z,3.96
2018-03-16T01:29:15.679Z,3.98
2018-03-16T01:31:43.216Z,3.91
2018-03-16T01:34:10.900Z,3.85
2018-03-16T01:36:38.438Z,3.72
2018-03-16T01:39:06.132Z,3.77
2018-03-16T01:41:33.659Z,3.63
2018-03-16T01:44:01.264Z,3.57
2018-03-16T01:46:28.821Z,3.61
2018-03-16T01:48:56.382Z,3.64
2018-03-16T01:51:23.913Z,3.82
2018-03-16T01:53:51.473Z,3.88
2018-03-16T01:56:19.014Z,3.89
2018-03-16T01:58:46.569Z,3.82
2018-03-16T02:01:14.105Z,3.78
2018-03-16T02:03:41.662Z,3.85
2018-03-16T02:06:09.279Z,3.89
2018-03-16T02:08:36.917Z,3.99
2018-03-16T02:11:04.579Z,4.01
2018-03-16T02:13:32.146Z,3.98
2018-03-16T02:15:59.704Z,4.00
2018-03-16T02:18:27.282Z,4.06
2018-03-16T02:20:54.818Z,4.15
2018-03-16T02:23:22.396Z,4.21
2018-03-16T02:25:49.937Z,4.36
2018-03-16T02:28:17.517Z,4.41
2018-03-16T02:30:45.053Z,4.44
2018-03-16T02:33:12.614Z,4.43
2018-03-16T02:35:40.173Z,4.44
2018-03-16T02:38:07.727Z,4.48
2018-03-16T02:40:35.254Z,4.54
2018-03-16T02:43:02.842Z,4.55
2018-03-16T02:45:30.435Z,4.55
2018-03-16T02:47:57.993Z,4.47
2018-03-16T02:50:25.554Z,4.35
2018-03-16T02:52:53.154Z,4.32
2018-03-16T02:55:20.706Z,4.31
2018-03-16T02:57:48.334Z,4.34
2018-03-16T03:00:15.887Z,4.38
2018-03-16T03:02:43.418Z,4.36
2018-03-16T03:05:10.978Z,4.46
2018-03-16T03:07:38.549Z,4.51
2018-03-16T03:10:06.102Z,4.58
2018-03-16T03:12:33.637Z,4.67
2018-03-16T03:15:01.197Z,4.72
2018-03-16T03:17:28.749Z,4.78
2018-03-16T03:19:56.311Z,4.86
2018-03-16T03:22:23.847Z,4.87
2018-03-16T03:24:51.401Z,4.94
2018-03-16T03:27:18.933Z,5.00
2018-03-16T03:29:46.515Z,4.95
2018-03-16T03:32:14.056Z,4.99
2018-03-16T03:34:41.634Z,5.01
2018-03-16T03:37:09.189Z,5.00
2018-03-16T03:39:36.753Z,4.98
2018-03-16T03:42:04.298Z,5.05
2018-03-16T03:44:31.869Z,5.15
2018-03-16T03:46:59.402Z,5.11
2018-03-16T03:49:26.985Z,5.09
2018-03-16T03:51:54.558Z,5.12
2018-03-16T03:54:22.098Z,5.19
2018-03-16T03:56:49.658Z,5.19
2018-03-16T03:59:17.197Z,5.24
2018-03-16T04:01:44.769Z,5.29
2018-03-16T04:04:12.326Z,5.30
2018-03-16T04:06:39.903Z,5.34
2018-03-16T04:09:07.469Z,5.38
2018-03-16T04:11:35.129Z,5.44
2018-03-16T04:14:02.671Z,5.49
2018-03-16T04:16:30.244Z,5.49
2018-03-16T04:18:57.809Z,5.53
2018-03-16T04:21:25.370Z,5.60
2018-03-16T04:23:52.951Z,5.62
2018-03-16T04:26:20.518Z,5.62
2018-03-16T04:28:49.045Z,5.59
2018-03-16T04:31:16.638Z,5.61
2018-03-16T04:33:44.225Z,5.64
2018-03-16T04:36:11.954Z,5.65
2018-03-16T04:38:39.615Z,5.68
2018-03-16T04:41:07.202Z,5.71
2018-03-16T04:43:34.753Z,5.72
2018-03-16T04:46:02.334Z,5.72
2018-03-16T04:48:29.869Z,5.70
2018-03-16T04:50:57.428Z,5.71
2018-03-16T04:53:24.995Z,5.68
2018-03-16T04:55:52.654Z,5.67
2018-03-16T04:58:20.188Z,5.62
2018-03-16T05:00:47.762Z,5.58
2018-03-16T05:03:15.349Z,5.56
2018-03-16T05:05:42.992Z,5.65
2018-03-16T05:08:10.553Z,5.70
2018-03-16T05:10:38.114Z,5.72
2018-03-16T05:13:05.678Z,5.73
2018-03-16T05:15:33.214Z,5.78
2018-03-16T05:18:00.780Z,5.75
2018-03-16T05:20:28.322Z,5.70
2018-03-16T05:22:55.909Z,5.72
2018-03-16T05:25:23.454Z,5.73
2018-03-16T05:27:51.014Z,5.73
2018-03-16T05:30:18.553Z,5.71
2018-03-16T05:32:46.143Z,5.74
2018-03-16T05:35:13.682Z,5.74
2018-03-16T05:37:41.262Z,5.72
2018-03-16T05:40:08.789Z,5.72
2018-03-16T05:42:36.344Z,5.73
2018-03-16T05:45:03.937Z,5.73
2018-03-16T05:47:31.544Z,5.65
2018-03-16T05:49:59.075Z,5.66
2018-03-16T05:52:26.745Z,5.71
2018-03-16T05:54:54.292Z,5.74
2018-03-16T05:57:21.943Z,5.79
2018-03-16T05:59:49.587Z,5.82
2018-03-16T06:02:17.153Z,5.83
2018-03-16T06:04:44.693Z,5.84
2018-03-16T06:07:12.254Z,5.88
2018-03-16T06:09:39.792Z,5.96
2018-03-16T06:12:07.410Z,6.02
2018-03-16T06:14:35.009Z,6.03
2018-03-16T06:17:02.559Z,6.02
2018-03-16T06:19:30.197Z,6.03
2018-03-16T06:21:57.765Z,6.09
2018-03-16T06:24:25.319Z,6.14
2018-03-16T06:26:52.909Z,6.18
2018-03-16T06:29:20.465Z,6.19
2018-03-16T06:31:48.005Z,6.22
2018-03-16T06:34:15.576Z,6.25
2018-03-16T06:36:43.127Z,6.35
2018-03-16T06:39:10.682Z,6.38
2018-03-16T06:41:38.279Z,6.41
2018-03-16T06:44:05.837Z,6.48
2018-03-16T06:46:33.378Z,6.52
2018-03-16T06:49:00.934Z,6.59
2018-03-16T06:51:28.586Z,6.63
2018-03-16T06:53:56.221Z,6.64
2018-03-16T06:56:23.760Z,6.69
2018-03-16T06:58:51.327Z,6.83
2018-03-16T07:01:18.860Z,6.93
2018-03-16T07:03:46.422Z,7.02
2018-03-16T07:06:13.959Z,7.06
2018-03-16T07:08:41.508Z,7.23
2018-03-16T07:11:09.048Z,7.47
2018-03-16T07:13:36.605Z,7.57
2018-03-16T07:16:04.152Z,7.71
2018-03-16T07:18:31.821Z,7.91
2018-03-16T07:20:59.357Z,8.14
2018-03-16T07:23:26.893Z,8.36
2018-03-16T07:25:54.482Z,8.55
2018-03-16T07:28:22.023Z,8.72
2018-03-16T07:30:49.587Z,8.79
2018-03-16T07:33:17.124Z,8.72
2018-03-16T07:35:44.678Z,8.73
2018-03-16T07:38:12.300Z,8.90
2018-03-16T07:40:39.854Z,9.03
2018-03-16T07:43:08.643Z,9.11
2018-03-16T07:45:41.842Z,9.23
2018-03-16T07:48:09.373Z,9.39
2018-03-16T07:50:36.927Z,9.45
2018-03-16T07:53:04.461Z,9.58
2018-03-16T07:55:32.018Z,9.59
2018-03-16T07:57:59.665Z,9.64
2018-03-16T08:00:27.287Z,9.75
2018-03-16T08:02:54.843Z,9.78
2018-03-16T08:05:22.414Z,9.78
2018-03-16T08:07:49.951Z,9.78
2018-03-16T08:10:17.507Z,9.79
2018-03-16T08:12:45.040Z,9.96
2018-03-16T08:15:12.696Z,10.01
2018-03-16T08:17:40.246Z,9.85
2018-03-16T08:20:07.798Z,9.83
2018-03-16T08:22:35.330Z,9.73
2018-03-16T08:25:03.018Z,9.75
2018-03-16T08:27:30.574Z,9.86
2018-03-16T08:29:58.161Z,10.05
2018-03-16T08:32:25.704Z,10.33
2018-03-16T08:34:53.246Z,10.59
2018-03-16T08:37:20.806Z,10.70
2018-03-16T08:39:48.385Z,10.94
2018-03-16T08:42:15.946Z,10.95
2018-03-16T08:44:43.483Z,10.90
2018-03-16T08:47:11.047Z,10.67
2018-03-16T08:49:38.765Z,10.39
2018-03-16T08:52:06.332Z,10.24
2018-03-16T08:54:33.902Z,10.27
2018-03-16T08:57:01.474Z,10.58
2018-03-16T08:59:29.069Z,11.01
2018-03-16T09:01:56.719Z,11.45
2018-03-16T09:04:24.281Z,11.73
2018-03-16T09:06:51.850Z,12.04
2018-03-16T09:09:19.504Z,12.45
2018-03-16T09:11:47.158Z,12.66
2018-03-16T09:14:14.694Z,12.79
2018-03-16T09:16:42.277Z,13.15
2018-03-16T09:19:10.411Z,13.15
2018-03-16T09:21:37.965Z,13.33
2018-03-16T09:24:05.546Z,12.80
2018-03-16T09:26:33.104Z,12.90
2018-03-16T09:29:00.641Z,12.99
2018-03-16T09:31:28.194Z,13.54
2018-03-16T09:33:55.728Z,13.99
2018-03-16T09:36:23.337Z,14.04
2018-03-16T09:38:50.865Z,14.36
2018-03-16T09:41:18.426Z,14.41
2018-03-16T09:43:46.058Z,13.66
2018-03-16T09:46:13.610Z,13.36
2018-03-16T09:48:41.165Z,12.82
2018-03-16T09:51:08.725Z,12.68
2018-03-16T09:53:36.286Z,12.72
2018-03-16T09:56:03.834Z,12.68
2018-03-16T09:58:31.510Z,12.69
2018-03-16T10:00:59.037Z,12.74
2018-03-16T10:03:26.657Z,12.79
2018-03-16T10:05:54.189Z,12.79
2018-03-16T10:08:21.749Z,12.50
2018-03-16T10:10:49.278Z,12.36
2018-03-16T10:13:16.829Z,12.50
2018-03-16T10:15:44.353Z,12.47
2018-03-16T10:18:11.926Z,12.24
2018-03-16T10:20:39.477Z,11.99
2018-03-16T10:23:07.030Z,12.34
2018-03-16T10:25:34.683Z,12.83
2018-03-16T10:28:02.483Z,13.47
2018-03-16T10:30:30.039Z,13.84
2018-03-16T10:32:57.648Z,14.24
2018-03-16T10:35:25.200Z,14.47
2018-03-16T10:37:52.823Z,14.43
2018-03-16T10:40:21.198Z,15.01
2018-03-16T10:42:48.764Z,15.29
2018-03-16T10:45:16.308Z,15.93
2018-03-16T10:47:43.870Z,16.28
2018-03-16T10:50:11.394Z,16.50
2018-03-16T10:52:38.974Z,16.02
2018-03-16T10:55:06.502Z,15.58
2018-03-16T10:57:34.986Z,15.72
2018-03-16T11:00:02.534Z,15.75
2018-03-16T11:02:35.663Z,15.69
2018-03-16T11:05:08.774Z,15.50
2018-03-16T11:07:43.141Z,15.44
2018-03-16T11:10:10.774Z,15.81
2018-03-16T11:12:38.606Z,15.13
2018-03-16T11:15:06.169Z,14.56
2018-03-16T11:17:33.705Z,15.66
2018-03-16T11:20:01.257Z,15.56
2018-03-16T11:22:28.810Z,15.48
2018-03-16T11:24:56.374Z,14.93
2018-03-16T11:27:23.910Z,14.28
2018-03-16T11:29:51.500Z,13.79
2018-03-16T11:32:19.054Z,13.46
2018-03-16T11:34:46.613Z,13.54
2018-03-16T11:37:14.152Z,14.63
2018-03-16T11:39:41.715Z,14.97
2018-03-16T11:42:09.450Z,14.69
2018-03-16T11:44:37.000Z,15.17
2018-03-16T11:47:04.628Z,16.38
2018-03-16T11:49:33.202Z,16.81
2018-03-16T11:52:00.753Z,19.71
2018-03-16T11:54:28.342Z,21.58
2018-03-16T11:56:55.882Z,20.94
2018-03-16T11:59:23.450Z,19.54
2018-03-16T12:01:51.087Z,18.83
2018-03-16T12:04:18.650Z,19.04
2018-03-16T12:06:46.197Z,20.84
2018-03-16T12:09:13.745Z,23.22
2018-03-16T12:11:41.323Z,24.43
2018-03-16T12:14:08.870Z,24.77
2018-03-16T12:16:36.467Z,26.61
2018-03-16T12:19:04.074Z,25.15
2018-03-16T12:21:31.614Z,22.60
2018-03-16T12:23:59.261Z,22.73
2018-03-16T12:26:26.832Z,21.92
2018-03-16T12:28:54.369Z,19.74
2018-03-16T12:31:21.937Z,19.02
2018-03-16T12:33:49.478Z,21.85
2018-03-16T12:36:17.186Z,22.59
2018-03-16T12:38:44.762Z,22.72
2018-03-16T12:41:12.350Z,24.64
2018-03-16T12:43:39.897Z,26.08
2018-03-16T12:46:07.476Z,23.29
2018-03-16T12:48:35.837Z,23.04
2018-03-16T12:51:03.385Z,26.23
2018-03-16T12:53:30.980Z,27.34
2018-03-16T12:55:58.552Z,27.40
2018-03-16T12:58:26.086Z,27.42
2018-03-16T13:00:53.633Z,29.79
2018-03-16T13:03:21.221Z,29.09
2018-03-16T13:05:48.778Z,28.64
2018-03-16T13:08:16.330Z,28.95
2018-03-16T13:10:43.952Z,26.17
2018-03-16T13:13:11.501Z,26.23
2018-03-16T13:15:39.088Z,23.77
2018-03-16T13:18:06.627Z,22.32
2018-03-16T13:20:34.195Z,20.07
2018-03-16T13:23:01.762Z,19.57
2018-03-16T13:25:29.363Z,20.53
2018-03-16T13:27:56.967Z,18.85
2018-03-16T13:30:24.571Z,18.12
2018-03-16T13:32:52.150Z,17.18
2018-03-16T13:35:19.687Z,21.02
2018-03-16T13:37:47.250Z,25.23
2018-03-16T13:40:14.826Z,23.89
2018-03-16T13:42:42.453Z,21.77
2018-03-16T13:45:09.985Z,19.47
2018-03-16T13:47:37.550Z,22.63
2018-03-16T13:50:05.152Z,23.93
2018-03-16T13:52:32.732Z,26.84
2018-03-16T13:55:00.298Z,29.94
2018-03-16T13:57:27.853Z,32.04
2018-03-16T13:59:55.389Z,31.73
2018-03-16T14:02:22.981Z,34.10
2018-03-16T14:04:50.518Z,34.44
2018-03-16T14:07:18.106Z,33.19
2018-03-16T14:09:45.637Z,31.89
2018-03-16T14:12:13.255Z,32.46
2018-03-16T14:14:40.801Z,31.84
2018-03-16T14:17:08.414Z,32.44
2018-03-16T14:19:35.962Z,32.38
2018-03-16T14:22:03.517Z,32.77
2018-03-16T14:24:31.061Z,32.58
2018-03-16T14:26:58.630Z,34.24
2018-03-16T14:29:26.170Z,34.19
2018-03-16T14:31:53.746Z,31.68
2018-03-16T14:34:21.294Z,28.18
2018-03-16T14:36:48.909Z,25.96
2018-03-16T14:39:16.446Z,25.96
2018-03-16T14:41:44.062Z,25.19
2018-03-16T14:44:12.012Z,22.16
2018-03-16T14:46:39.886Z,25.95
2018-03-16T14:49:07.522Z,24.94
2018-03-16T14:51:35.112Z,22.02
2018-03-16T14:54:02.765Z,21.15
2018-03-16T14:56:30.333Z,20.20
2018-03-16T14:58:57.881Z,19.13
2018-03-16T15:01:25.516Z,18.94
2018-03-16T15:03:53.082Z,20.39
2018-03-16T15:06:20.616Z,21.15
2018-03-16T15:08:48.171Z,20.01
2018-03-16T15:11:15.703Z,18.47
2018-03-16T15:13:43.266Z,17.96
2018-03-16T15:16:10.798Z,17.71
2018-03-16T15:18:38.353Z,17.43
2018-03-16T15:21:05.926Z,17.23
2018-03-16T15:23:33.486Z,16.95
2018-03-16T15:26:01.010Z,16.94
2018-03-16T15:28:28.544Z,20.33
2018-03-16T15:30:56.051Z,23.09
2018-03-16T15:33:23.667Z,26.28
2018-03-16T15:35:51.150Z,27.08
2018-03-16T15:38:18.672Z,26.53
2018-03-16T15:40:46.187Z,24.76
2018-03-16T15:43:13.824Z,22.70
2018-03-16T15:45:41.328Z,22.52
2018-03-16T15:48:09.859Z,21.62
2018-03-16T15:50:37.370Z,20.98
2018-03-16T15:53:04.893Z,20.62
2018-03-16T15:55:32.412Z,20.94
2018-03-16T15:57:59.909Z,20.10
2018-03-16T16:00:27.867Z,19.12
2018-03-16T16:02:55.416Z,18.43
2018-03-16T16:05:22.979Z,17.25
2018-03-16T16:07:50.468Z,16.84
2018-03-16T16:10:18.105Z,16.49
2018-03-16T16:12:45.672Z,16.43
2018-03-16T16:15:13.225Z,16.38
2018-03-16T16:17:40.748Z,16.13
2018-03-16T16:20:08.276Z,15.95
2018-03-16T16:22:35.805Z,16.02
2018-03-16T16:25:03.322Z,15.98
2018-03-16T16:27:30.824Z,15.91
2018-03-16T16:29:58.416Z,15.98
2018-03-16T16:32:25.903Z,15.99
2018-03-16T16:34:53.441Z,16.00
2018-03-16T16:37:21.040Z,15.77
2018-03-16T16:39:48.572Z,15.53
2018-03-16T16:42:17.060Z,15.41
2018-03-16T16:44:44.575Z,15.22
2018-03-16T16:47:12.102Z,15.11
2018-03-16T16:49:39.613Z,14.95
2018-03-16T16:52:07.139Z,14.91
2018-03-16T16:54:34.652Z,15.34
2018-03-16T16:57:02.228Z,17.15
2018-03-16T16:59:29.724Z,19.27
2018-03-16T17:01:57.283Z,19.80
2018-03-16T17:04:24.772Z,19.81
2018-03-16T17:06:52.285Z,18.94
2018-03-16T17:09:19.800Z,18.08
2018-03-16T17:11:47.403Z,17.72
2018-03-16T17:14:14.904Z,17.42
2018-03-16T17:16:42.419Z,16.05
2018-03-16T17:19:10.070Z,15.13
2018-03-16T17:21:37.588Z,14.59
2018-03-16T17:24:05.081Z,14.10
2018-03-16T17:26:32.593Z,13.68
2018-03-16T17:29:00.073Z,13.38
2018-03-16T17:31:27.588Z,13.16
2018-03-16T17:33:55.096Z,13.00
2018-03-16T17:36:22.624Z,12.85
2018-03-16T17:38:50.306Z,12.70
2018-03-16T17:41:17.824Z,12.59
2018-03-16T17:43:45.419Z,12.46
2018-03-16T17:46:12.915Z,12.35
2018-03-16T17:48:40.403Z,12.31
2018-03-16T17:51:07.935Z,12.26
2018-03-16T17:53:35.462Z,12.25
2018-03-16T17:56:02.989Z,12.20
2018-03-16T17:58:30.538Z,12.12
2018-03-16T18:00:58.052Z,12.01
2018-03-16T18:03:25.575Z,11.92
2018-03-16T18:05:53.867Z,11.78
2018-03-16T18:08:21.436Z,11.68
2018-03-16T18:10:48.922Z,11.54
2018-03-16T18:13:16.444Z,11.44
2018-03-16T18:15:43.936Z,11.39
2018-03-16T18:18:11.448Z,11.34
2018-03-16T18:20:39.860Z,11.34
2018-03-16T18:23:07.376Z,11.32
2018-03-16T18:25:34.876Z,11.28
2018-03-16T18:28:02.392Z,11.20
2018-03-16T18:30:30.820Z,11.15
2018-03-16T18:32:58.340Z,11.13
2018-03-16T18:35:25.839Z,11.17
2018-03-16T18:37:53.351Z,11.17
2018-03-16T18:40:20.851Z,11.14
2018-03-16T18:42:48.363Z,11.09
2018-03-16T18:45:16.783Z,11.07
2018-03-16T18:47:44.320Z,11.04
2018-03-16T18:50:11.840Z,10.98
2018-03-16T18:52:44.348Z,10.93
2018-03-16T18:55:26.968Z,10.88
2018-03-16T18:57:57.325Z,10.88
2018-03-16T19:00:27.148Z,10.87
2018-03-16T19:02:56.444Z,11.02
2018-03-16T19:05:26.353Z,11.00
2018-03-16T19:07:54.730Z,10.91
2018-03-16T19:10:23.769Z,10.84
2018-03-16T19:12:51.980Z,10.67
2018-03-16T19:15:20.682Z,10.55
2018-03-16T19:17:49.442Z,10.39
2018-03-16T19:20:19.499Z,10.32
2018-03-16T19:22:47.549Z,10.24
2018-03-16T19:25:16.603Z,10.23
2018-03-16T19:27:44.509Z,10.03
2018-03-16T19:30:13.008Z,9.90
2018-03-16T19:32:42.787Z,9.77
2018-03-16T19:35:10.978Z,9.65
2018-03-16T19:37:39.280Z,9.58
2018-03-16T19:40:07.563Z,9.50
2018-03-16T19:42:35.914Z,9.38
2018-03-16T19:45:05.088Z,9.24
2018-03-16T19:47:33.304Z,9.08
2018-03-16T19:50:01.402Z,9.00
2018-03-16T19:52:30.233Z,8.92
2018-03-16T19:54:58.141Z,8.71
2018-03-16T19:57:26.807Z,8.52
2018-03-16T19:59:55.043Z,8.42
2018-03-16T20:02:23.007Z,8.46
2018-03-16T20:04:51.616Z,8.42
2018-03-16T20:07:22.622Z,8.41
2018-03-16T20:09:51.186Z,8.37
2018-03-16T20:12:22.856Z,8.31
2018-03-16T20:14:53.546Z,8.37
2018-03-16T20:17:22.123Z,8.34
2018-03-16T20:19:50.613Z,8.26
2018-03-16T20:22:22.503Z,8.19
2018-03-16T20:24:54.169Z,8.13
2018-03-16T20:27:25.991Z,8.13
2018-03-16T20:29:56.396Z,8.19
2018-03-16T20:32:27.933Z,8.24
2018-03-16T20:34:56.322Z,8.44
2018-03-16T20:37:24.465Z,8.50
2018-03-16T20:39:52.468Z,8.41
2018-03-16T20:42:23.011Z,8.27
2018-03-16T20:44:55.569Z,8.13
2018-03-16T20:47:24.851Z,7.94
2018-03-16T20:49:53.202Z,7.79
2018-03-16T20:52:26.795Z,7.65
2018-03-16T20:54:56.970Z,7.62
2018-03-16T20:57:25.403Z,7.58
2018-03-16T20:59:53.761Z,7.46
2018-03-16T21:02:23.119Z,7.59
2018-03-16T21:04:52.709Z,7.61
2018-03-16T21:07:21.126Z,7.51
2018-03-16T21:09:49.164Z,7.50
2018-03-16T21:12:17.934Z,7.42
2018-03-16T21:14:47.852Z,7.41
2018-03-16T21:17:16.767Z,7.41
2018-03-16T21:19:46.347Z,7.36
2018-03-16T21:22:15.458Z,7.25
2018-03-16T21:24:44.253Z,7.11
2018-03-16T21:27:13.228Z,7.10
2018-03-16T21:29:43.551Z,7.02
2018-03-16T21:32:11.745Z,7.05
2018-03-16T21:34:40.388Z,7.03
2018-03-16T21:37:09.013Z,7.05
2018-03-16T21:39:38.124Z,7.07
2018-03-16T21:42:10.086Z,7.00
2018-03-16T21:44:39.482Z,7.08
2018-03-16T21:47:08.643Z,6.92
2018-03-16T21:49:38.058Z,6.81
2018-03-16T21:52:07.319Z,6.82
2018-03-16T21:54:37.381Z,6.82
2018-03-16T21:57:11.645Z,6.74
2018-03-16T21:59:44.573Z,6.61
2018-03-16T22:02:19.361Z,6.50
2018-03-16T22:04:50.453Z,6.40
2018-03-16T22:07:19.798Z,6.32
2018-03-16T22:09:48.484Z,6.25
2018-03-16T22:12:18.774Z,6.28
2018-03-16T22:14:49.083Z,6.30
2018-03-16T22:17:18.997Z,6.52
2018-03-16T22:19:49.308Z,6.53
2018-03-16T22:22:18.392Z,6.54
2018-03-16T22:24:47.671Z,6.56
2018-03-16T22:27:19.194Z,6.59
2018-03-16T22:29:50.186Z,6.62
2018-03-16T22:32:18.817Z,6.61
2018-03-16T22:34:47.268Z,6.64
2018-03-16T22:37:16.052Z,6.64
2018-03-16T22:39:48.083Z,6.59
2018-03-16T22:42:17.779Z,6.53
2018-03-16T22:44:46.692Z,6.52
2018-03-16T22:47:15.026Z,6.48
2018-03-16T22:49:43.975Z,6.42
2018-03-16T22:52:11.472Z,6.34
2018-03-16T22:54:38.979Z,6.28
2018-03-16T22:57:06.468Z,6.27
2018-03-16T22:59:33.991Z,6.26
2018-03-16T23:02:01.479Z,6.26
2018-03-16T23:04:29.128Z,6.35
2018-03-16T23:06:56.626Z,6.47
2018-03-16T23:09:24.136Z,6.56
2018-03-16T23:11:51.708Z,6.51
2018-03-16T23:14:19.228Z,6.44
2018-03-16T23:16:46.780Z,6.31
2018-03-16T23:19:14.243Z,6.18
2018-03-16T23:21:41.747Z,6.08
2018-03-16T23:24:09.299Z,6.00
2018-03-16T23:26:36.779Z,5.81
2018-03-16T23:29:04.316Z,5.67
2018-03-16T23:31:31.948Z,5.58
2018-03-16T23:33:59.464Z,5.53
2018-03-16T23:36:26.955Z,5.45
2018-03-16T23:38:54.556Z,5.36
2018-03-16T23:41:22.050Z,5.32
2018-03-16T23:43:49.536Z,5.25
2018-03-16T23:46:17.045Z,5.18
2018-03-16T23:48:44.537Z,5.10
2018-03-16T23:51:12.048Z,5.08
2018-03-16T23:53:39.535Z,5.04
2018-03-16T23:56:07.059Z,5.03
2018-03-16T23:58:34.543Z,4.92
